YPTN/KTR METAR and TAF weather

Enter ICAO airport designator
Station Type Date Time Source
YPTN METAR 2019/04/20 22:30 UTC NOAA

YPTN 202230Z AUTO 15004KT 9999 // NCD 23/19 Q1012


Station Type Date Time Source
YPTN Decoded METAR 2019/04/20 22:30 UTC NOAA

Tindal / Katherine, Australia (YPTN) 14-26S 132-16E 109M
Apr 20, 2019 - 06:30 PM EDT / 2019.04.20 2230 UTC
Wind: from the SSE (150 degrees) at 5 MPH (4 KT):0
Visibility: greater than 7 mile(s):0
Temperature: 73 F (23 C)
Dew Point: 66 F (19 C)
Relative Humidity: 78%
Pressure (altimeter): 29.88 in. Hg (1012 hPa)
ob: YPTN 202230Z AUTO 15004KT 9999 // NCD 23/19 Q1012
cycle: 22

Station Type Date Time Source
YPTN TAF 2019/04/20 18:33 UTC NOAA

TAF YPTN 201708Z 2018/2118 14005KT CAVOK
FM210000 12010KT CAVOK
FM210800 10005KT CAVOK

Example: see airport list